sensor_id;sensor_type;location;lat;lon;timestamp;P1;durP1;ratioP1;P2;durP2;ratioP2
357;SDS011;167;47.558;7.602;2022-12-07T00:02:24;7.13;;;6.30;;
357;SDS011;167;47.558;7.602;2022-12-07T00:04:50;7.27;;;6.47;;
357;SDS011;167;47.558;7.602;2022-12-07T00:07:16;7.07;;;6.40;;
357;SDS011;167;47.558;7.602;2022-12-07T00:09:42;7.07;;;6.47;;
357;SDS011;167;47.558;7.602;2022-12-07T00:12:08;7.73;;;6.67;;
357;SDS011;167;47.558;7.602;2022-12-07T00:14:34;6.43;;;5.80;;
357;SDS011;167;47.558;7.602;2022-12-07T00:16:59;8.13;;;6.70;;
357;SDS011;167;47.558;7.602;2022-12-07T00:19:26;8.00;;;7.30;;
357;SDS011;167;47.558;7.602;2022-12-07T00:21:52;7.50;;;6.77;;
357;SDS011;167;47.558;7.602;2022-12-07T00:24:17;10.03;;;6.50;;
357;SDS011;167;47.558;7.602;2022-12-07T00:26:43;6.47;;;5.97;;
357;SDS011;167;47.558;7.602;2022-12-07T00:29:17;7.50;;;6.67;;
357;SDS011;167;47.558;7.602;2022-12-07T00:31:44;7.90;;;7.17;;
357;SDS011;167;47.558;7.602;2022-12-07T00:34:13;6.20;;;5.70;;
357;SDS011;167;47.558;7.602;2022-12-07T00:36:40;8.20;;;7.50;;
357;SDS011;167;47.558;7.602;2022-12-07T00:39:06;7.50;;;6.80;;
357;SDS011;167;47.558;7.602;2022-12-07T00:41:32;7.87;;;7.07;;
357;SDS011;167;47.558;7.602;2022-12-07T00:43:58;8.20;;;7.40;;
357;SDS011;167;47.558;7.602;2022-12-07T00:46:24;6.67;;;6.07;;
357;SDS011;167;47.558;7.602;2022-12-07T00:48:51;8.60;;;7.80;;
357;SDS011;167;47.558;7.602;2022-12-07T00:51:17;8.20;;;7.50;;
357;SDS011;167;47.558;7.602;2022-12-07T00:53:44;7.07;;;6.47;;
357;SDS011;167;47.558;7.602;2022-12-07T00:56:13;7.97;;;7.27;;
357;SDS011;167;47.558;7.602;2022-12-07T00:58:40;7.47;;;6.87;;
357;SDS011;167;47.558;7.602;2022-12-07T01:01:07;7.70;;;6.90;;
357;SDS011;167;47.558;7.602;2022-12-07T01:03:33;7.90;;;6.43;;
357;SDS011;167;47.558;7.602;2022-12-07T01:05:59;7.60;;;7.00;;
357;SDS011;167;47.558;7.602;2022-12-07T01:08:25;7.43;;;6.73;;
357;SDS011;167;47.558;7.602;2022-12-07T01:11:02;6.93;;;6.33;;
357;SDS011;167;47.558;7.602;2022-12-07T01:13:29;7.50;;;6.90;;
357;SDS011;167;47.558;7.602;2022-12-07T01:15:59;6.40;;;5.90;;
357;SDS011;167;47.558;7.602;2022-12-07T01:18:29;8.00;;;7.30;;
357;SDS011;167;47.558;7.602;2022-12-07T01:20:59;7.57;;;6.93;;
357;SDS011;167;47.558;7.602;2022-12-07T01:23:25;6.47;;;5.87;;
357;SDS011;167;47.558;7.602;2022-12-07T01:25:55;8.83;;;7.93;;
357;SDS011;167;47.558;7.602;2022-12-07T01:28:21;7.80;;;7.10;;
357;SDS011;167;47.558;7.602;2022-12-07T01:30:54;7.57;;;6.97;;
357;SDS011;167;47.558;7.602;2022-12-07T01:33:20;8.43;;;7.73;;
357;SDS011;167;47.558;7.602;2022-12-07T01:35:46;7.23;;;6.67;;
357;SDS011;167;47.558;7.602;2022-12-07T01:38:12;7.77;;;7.07;;
357;SDS011;167;47.558;7.602;2022-12-07T01:40:38;7.90;;;7.07;;
357;SDS011;167;47.558;7.602;2022-12-07T01:43:09;8.07;;;7.30;;
357;SDS011;167;47.558;7.602;2022-12-07T01:45:39;7.93;;;7.23;;
357;SDS011;167;47.558;7.602;2022-12-07T01:48:06;7.20;;;6.50;;
357;SDS011;167;47.558;7.602;2022-12-07T01:50:33;8.67;;;7.90;;
357;SDS011;167;47.558;7.602;2022-12-07T01:52:59;8.30;;;7.60;;
357;SDS011;167;47.558;7.602;2022-12-07T01:55:27;8.00;;;7.00;;
357;SDS011;167;47.558;7.602;2022-12-07T01:57:53;7.43;;;6.60;;
357;SDS011;167;47.558;7.602;2022-12-07T02:00:20;8.40;;;7.70;;
357;SDS011;167;47.558;7.602;2022-12-07T02:02:57;9.73;;;8.83;;
357;SDS011;167;47.558;7.602;2022-12-07T02:05:24;8.20;;;7.50;;
357;SDS011;167;47.558;7.602;2022-12-07T02:07:51;8.80;;;8.00;;
357;SDS011;167;47.558;7.602;2022-12-07T02:10:20;7.70;;;7.00;;
357;SDS011;167;47.558;7.602;2022-12-07T02:12:47;9.30;;;7.40;;
357;SDS011;167;47.558;7.602;2022-12-07T02:15:14;8.80;;;7.50;;
357;SDS011;167;47.558;7.602;2022-12-07T02:17:44;7.77;;;7.07;;
357;SDS011;167;47.558;7.602;2022-12-07T02:22:47;8.70;;;7.90;;
357;SDS011;167;47.558;7.602;2022-12-07T02:27:46;8.53;;;7.77;;
357;SDS011;167;47.558;7.602;2022-12-07T02:30:17;8.47;;;7.67;;
357;SDS011;167;47.558;7.602;2022-12-07T02:35:15;9.63;;;8.70;;
357;SDS011;167;47.558;7.602;2022-12-07T02:38:01;9.40;;;8.50;;
357;SDS011;167;47.558;7.602;2022-12-07T02:42:55;9.40;;;8.40;;
357;SDS011;167;47.558;7.602;2022-12-07T02:45:24;7.70;;;7.00;;
357;SDS011;167;47.558;7.602;2022-12-07T02:47:51;7.20;;;6.70;;
357;SDS011;167;47.558;7.602;2022-12-07T02:50:19;9.47;;;8.47;;
357;SDS011;167;47.558;7.602;2022-12-07T02:52:45;9.83;;;8.87;;
357;SDS011;167;47.558;7.602;2022-12-07T02:55:11;9.43;;;8.53;;
357;SDS011;167;47.558;7.602;2022-12-07T02:57:42;8.97;;;8.20;;
357;SDS011;167;47.558;7.602;2022-12-07T03:00:13;9.67;;;8.47;;
357;SDS011;167;47.558;7.602;2022-12-07T03:05:22;10.40;;;9.30;;
357;SDS011;167;47.558;7.602;2022-12-07T03:15:41;8.60;;;7.80;;
357;SDS011;167;47.558;7.602;2022-12-07T03:18:09;11.13;;;10.03;;
357;SDS011;167;47.558;7.602;2022-12-07T03:20:37;10.13;;;9.23;;
357;SDS011;167;47.558;7.602;2022-12-07T03:23:05;9.70;;;8.80;;
357;SDS011;167;47.558;7.602;2022-12-07T03:25:34;10.10;;;9.13;;
357;SDS011;167;47.558;7.602;2022-12-07T03:28:05;9.87;;;8.87;;
357;SDS011;167;47.558;7.602;2022-12-07T03:30:33;10.13;;;9.23;;
357;SDS011;167;47.558;7.602;2022-12-07T03:33:24;9.83;;;8.83;;
357;SDS011;167;47.558;7.602;2022-12-07T03:35:55;10.10;;;9.20;;
357;SDS011;167;47.558;7.602;2022-12-07T03:38:25;10.80;;;8.67;;
357;SDS011;167;47.558;7.602;2022-12-07T03:43:21;10.77;;;9.60;;
357;SDS011;167;47.558;7.602;2022-12-07T03:46:34;10.67;;;9.40;;
357;SDS011;167;47.558;7.602;2022-12-07T03:51:22;10.50;;;9.40;;
357;SDS011;167;47.558;7.602;2022-12-07T03:53:54;12.33;;;10.30;;
357;SDS011;167;47.558;7.602;2022-12-07T03:56:22;10.23;;;9.23;;
357;SDS011;167;47.558;7.602;2022-12-07T03:58:49;11.23;;;10.13;;
357;SDS011;167;47.558;7.602;2022-12-07T04:01:17;9.43;;;8.60;;
357;SDS011;167;47.558;7.602;2022-12-07T04:03:43;9.43;;;8.43;;
357;SDS011;167;47.558;7.602;2022-12-07T04:06:09;9.50;;;8.57;;
357;SDS011;167;47.558;7.602;2022-12-07T04:08:35;11.00;;;9.77;;
357;SDS011;167;47.558;7.602;2022-12-07T04:11:01;10.67;;;8.67;;
357;SDS011;167;47.558;7.602;2022-12-07T04:13:27;13.93;;;10.00;;
357;SDS011;167;47.558;7.602;2022-12-07T04:15:53;10.10;;;9.20;;
357;SDS011;167;47.558;7.602;2022-12-07T04:18:19;10.90;;;9.63;;
357;SDS011;167;47.558;7.602;2022-12-07T04:20:45;10.37;;;9.27;;
357;SDS011;167;47.558;7.602;2022-12-07T04:23:11;11.83;;;9.23;;
357;SDS011;167;47.558;7.602;2022-12-07T04:25:37;8.47;;;7.77;;
357;SDS011;167;47.558;7.602;2022-12-07T04:28:03;7.70;;;6.90;;
357;SDS011;167;47.558;7.602;2022-12-07T04:30:29;8.50;;;7.70;;
357;SDS011;167;47.558;7.602;2022-12-07T04:32:55;9.20;;;8.20;;
357;SDS011;167;47.558;7.602;2022-12-07T04:35:21;10.47;;;7.27;;
357;SDS011;167;47.558;7.602;2022-12-07T04:37:47;8.67;;;7.77;;
357;SDS011;167;47.558;7.602;2022-12-07T04:40:13;7.67;;;6.93;;
357;SDS011;167;47.558;7.602;2022-12-07T04:42:39;7.53;;;6.73;;
357;SDS011;167;47.558;7.602;2022-12-07T04:45:05;7.30;;;6.40;;
357;SDS011;167;47.558;7.602;2022-12-07T04:47:32;7.63;;;6.80;;
357;SDS011;167;47.558;7.602;2022-12-07T04:49:58;7.33;;;6.70;;
357;SDS011;167;47.558;7.602;2022-12-07T04:52:24;7.07;;;6.37;;
357;SDS011;167;47.558;7.602;2022-12-07T04:54:49;6.70;;;6.10;;
357;SDS011;167;47.558;7.602;2022-12-07T04:57:15;6.60;;;5.87;;
357;SDS011;167;47.558;7.602;2022-12-07T04:59:41;6.20;;;5.70;;
357;SDS011;167;47.558;7.602;2022-12-07T05:02:07;6.70;;;6.10;;
357;SDS011;167;47.558;7.602;2022-12-07T05:04:33;6.27;;;5.67;;
357;SDS011;167;47.558;7.602;2022-12-07T05:06:59;4.80;;;4.40;;
357;SDS011;167;47.558;7.602;2022-12-07T05:09:25;5.53;;;5.03;;
357;SDS011;167;47.558;7.602;2022-12-07T05:11:51;6.60;;;4.80;;
357;SDS011;167;47.558;7.602;2022-12-07T05:14:20;5.80;;;5.20;;
357;SDS011;167;47.558;7.602;2022-12-07T05:16:47;5.33;;;4.90;;
357;SDS011;167;47.558;7.602;2022-12-07T05:19:14;5.93;;;5.40;;
357;SDS011;167;47.558;7.602;2022-12-07T05:21:40;6.90;;;6.23;;
357;SDS011;167;47.558;7.602;2022-12-07T05:24:07;6.70;;;6.10;;
357;SDS011;167;47.558;7.602;2022-12-07T05:26:33;6.87;;;6.23;;
357;SDS011;167;47.558;7.602;2022-12-07T05:28:59;6.20;;;5.60;;
357;SDS011;167;47.558;7.602;2022-12-07T05:31:25;5.60;;;5.10;;
357;SDS011;167;47.558;7.602;2022-12-07T05:33:52;7.17;;;6.47;;
357;SDS011;167;47.558;7.602;2022-12-07T05:36:18;10.10;;;8.90;;
357;SDS011;167;47.558;7.602;2022-12-07T05:38:44;7.50;;;6.03;;
357;SDS011;167;47.558;7.602;2022-12-07T05:41:12;7.60;;;6.40;;
357;SDS011;167;47.558;7.602;2022-12-07T05:43:58;7.87;;;7.10;;
357;SDS011;167;47.558;7.602;2022-12-07T05:46:24;7.50;;;5.60;;
357;SDS011;167;47.558;7.602;2022-12-07T05:48:50;6.30;;;5.70;;
357;SDS011;167;47.558;7.602;2022-12-07T05:51:16;7.47;;;6.77;;
357;SDS011;167;47.558;7.602;2022-12-07T05:53:42;7.17;;;6.40;;
357;SDS011;167;47.558;7.602;2022-12-07T05:56:08;6.10;;;5.50;;
357;SDS011;167;47.558;7.602;2022-12-07T05:58:34;7.47;;;6.77;;
357;SDS011;167;47.558;7.602;2022-12-07T06:01:19;6.47;;;5.80;;
357;SDS011;167;47.558;7.602;2022-12-07T06:03:45;7.50;;;6.40;;
357;SDS011;167;47.558;7.602;2022-12-07T06:06:11;6.60;;;5.80;;
357;SDS011;167;47.558;7.602;2022-12-07T06:08:37;6.63;;;5.87;;
357;SDS011;167;47.558;7.602;2022-12-07T06:11:03;6.20;;;5.60;;
357;SDS011;167;47.558;7.602;2022-12-07T06:13:48;7.10;;;6.47;;
357;SDS011;167;47.558;7.602;2022-12-07T06:16:13;7.70;;;6.07;;
357;SDS011;167;47.558;7.602;2022-12-07T06:18:39;6.77;;;6.03;;
357;SDS011;167;47.558;7.602;2022-12-07T06:21:05;7.33;;;6.60;;
357;SDS011;167;47.558;7.602;2022-12-07T06:23:31;6.17;;;5.63;;
357;SDS011;167;47.558;7.602;2022-12-07T06:25:57;7.40;;;6.70;;
357;SDS011;167;47.558;7.602;2022-12-07T06:28:24;7.90;;;6.10;;
357;SDS011;167;47.558;7.602;2022-12-07T06:30:56;7.30;;;6.60;;
357;SDS011;167;47.558;7.602;2022-12-07T06:33:23;8.37;;;6.67;;
357;SDS011;167;47.558;7.602;2022-12-07T06:35:49;6.70;;;6.10;;
357;SDS011;167;47.558;7.602;2022-12-07T06:38:15;6.90;;;6.27;;
357;SDS011;167;47.558;7.602;2022-12-07T06:40:41;6.53;;;5.93;;
357;SDS011;167;47.558;7.602;2022-12-07T06:43:07;7.90;;;6.27;;
357;SDS011;167;47.558;7.602;2022-12-07T06:45:33;7.03;;;5.67;;
357;SDS011;167;47.558;7.602;2022-12-07T06:47:59;7.00;;;6.40;;
357;SDS011;167;47.558;7.602;2022-12-07T06:50:25;6.97;;;6.27;;
357;SDS011;167;47.558;7.602;2022-12-07T06:52:51;7.10;;;6.40;;
357;SDS011;167;47.558;7.602;2022-12-07T06:55:17;7.70;;;7.00;;
357;SDS011;167;47.558;7.602;2022-12-07T06:57:43;6.77;;;6.07;;
357;SDS011;167;47.558;7.602;2022-12-07T07:00:09;9.17;;;7.00;;
357;SDS011;167;47.558;7.602;2022-12-07T07:02:36;6.70;;;6.17;;
357;SDS011;167;47.558;7.602;2022-12-07T07:05:02;6.97;;;6.27;;
357;SDS011;167;47.558;7.602;2022-12-07T07:07:28;8.00;;;6.33;;
357;SDS011;167;47.558;7.602;2022-12-07T07:09:54;7.83;;;6.80;;
357;SDS011;167;47.558;7.602;2022-12-07T07:12:20;7.13;;;6.43;;
357;SDS011;167;47.558;7.602;2022-12-07T07:14:46;6.20;;;5.60;;
357;SDS011;167;47.558;7.602;2022-12-07T07:17:12;6.73;;;6.10;;
357;SDS011;167;47.558;7.602;2022-12-07T07:19:38;7.40;;;6.63;;
357;SDS011;167;47.558;7.602;2022-12-07T07:22:04;8.87;;;6.53;;
357;SDS011;167;47.558;7.602;2022-12-07T07:24:30;7.77;;;6.70;;
357;SDS011;167;47.558;7.602;2022-12-07T07:26:56;7.23;;;6.67;;
357;SDS011;167;47.558;7.602;2022-12-07T07:29:22;6.90;;;6.20;;
357;SDS011;167;47.558;7.602;2022-12-07T07:31:48;8.27;;;7.10;;
357;SDS011;167;47.558;7.602;2022-12-07T07:34:14;14.30;;;12.23;;
357;SDS011;167;47.558;7.602;2022-12-07T07:36:40;24.93;;;17.30;;
357;SDS011;167;47.558;7.602;2022-12-07T07:39:06;8.87;;;6.17;;
357;SDS011;167;47.558;7.602;2022-12-07T07:41:32;7.00;;;6.30;;
357;SDS011;167;47.558;7.602;2022-12-07T07:43:58;6.37;;;5.73;;
357;SDS011;167;47.558;7.602;2022-12-07T07:46:24;7.43;;;6.73;;
357;SDS011;167;47.558;7.602;2022-12-07T07:48:50;8.73;;;5.90;;
357;SDS011;167;47.558;7.602;2022-12-07T07:51:16;7.27;;;5.83;;
357;SDS011;167;47.558;7.602;2022-12-07T07:53:42;6.57;;;5.90;;
357;SDS011;167;47.558;7.602;2022-12-07T07:56:08;7.80;;;7.10;;
357;SDS011;167;47.558;7.602;2022-12-07T07:58:34;10.20;;;7.00;;
357;SDS011;167;47.558;7.602;2022-12-07T08:01:04;7.70;;;6.60;;
357;SDS011;167;47.558;7.602;2022-12-07T08:03:30;7.33;;;6.63;;
357;SDS011;167;47.558;7.602;2022-12-07T08:05:56;7.70;;;7.10;;
357;SDS011;167;47.558;7.602;2022-12-07T08:08:22;9.03;;;8.27;;
357;SDS011;167;47.558;7.602;2022-12-07T08:10:48;9.90;;;9.00;;
357;SDS011;167;47.558;7.602;2022-12-07T08:13:15;7.80;;;6.97;;
357;SDS011;167;47.558;7.602;2022-12-07T08:15:45;9.07;;;7.00;;
357;SDS011;167;47.558;7.602;2022-12-07T08:18:11;6.83;;;6.23;;
357;SDS011;167;47.558;7.602;2022-12-07T08:20:38;7.87;;;7.17;;
357;SDS011;167;47.558;7.602;2022-12-07T08:23:05;7.00;;;6.30;;
357;SDS011;167;47.558;7.602;2022-12-07T08:25:32;8.20;;;7.40;;
357;SDS011;167;47.558;7.602;2022-12-07T08:27:58;7.30;;;6.60;;
357;SDS011;167;47.558;7.602;2022-12-07T08:30:25;7.07;;;6.40;;
357;SDS011;167;47.558;7.602;2022-12-07T08:32:52;7.33;;;6.50;;
357;SDS011;167;47.558;7.602;2022-12-07T08:35:18;6.97;;;6.33;;
357;SDS011;167;47.558;7.602;2022-12-07T08:37:44;7.97;;;6.80;;
357;SDS011;167;47.558;7.602;2022-12-07T08:40:11;8.37;;;7.20;;
357;SDS011;167;47.558;7.602;2022-12-07T08:42:40;7.80;;;6.90;;
357;SDS011;167;47.558;7.602;2022-12-07T08:45:07;8.80;;;7.90;;
357;SDS011;167;47.558;7.602;2022-12-07T08:47:34;10.30;;;8.10;;
357;SDS011;167;47.558;7.602;2022-12-07T08:50:01;7.57;;;6.87;;
357;SDS011;167;47.558;7.602;2022-12-07T08:52:29;9.67;;;8.40;;
357;SDS011;167;47.558;7.602;2022-12-07T08:54:55;9.63;;;7.73;;
357;SDS011;167;47.558;7.602;2022-12-07T08:57:21;11.27;;;9.30;;
357;SDS011;167;47.558;7.602;2022-12-07T08:59:47;10.60;;;8.10;;
357;SDS011;167;47.558;7.602;2022-12-07T09:02:14;10.57;;;9.40;;
357;SDS011;167;47.558;7.602;2022-12-07T09:04:40;10.60;;;9.30;;
357;SDS011;167;47.558;7.602;2022-12-07T09:07:06;9.37;;;8.37;;
357;SDS011;167;47.558;7.602;2022-12-07T09:09:32;14.13;;;9.77;;
357;SDS011;167;47.558;7.602;2022-12-07T09:11:58;11.27;;;10.10;;
357;SDS011;167;47.558;7.602;2022-12-07T09:14:24;11.10;;;9.00;;
357;SDS011;167;47.558;7.602;2022-12-07T09:16:50;12.57;;;10.07;;
357;SDS011;167;47.558;7.602;2022-12-07T09:19:16;12.20;;;10.97;;
357;SDS011;167;47.558;7.602;2022-12-07T09:21:42;12.90;;;10.23;;
357;SDS011;167;47.558;7.602;2022-12-07T09:24:08;12.67;;;11.30;;
357;SDS011;167;47.558;7.602;2022-12-07T09:26:34;12.60;;;11.30;;
357;SDS011;167;47.558;7.602;2022-12-07T09:29:00;11.80;;;10.67;;
357;SDS011;167;47.558;7.602;2022-12-07T09:31:27;12.00;;;10.73;;
357;SDS011;167;47.558;7.602;2022-12-07T09:33:59;16.13;;;11.60;;
357;SDS011;167;47.558;7.602;2022-12-07T09:36:26;12.37;;;10.00;;
357;SDS011;167;47.558;7.602;2022-12-07T09:38:52;13.07;;;11.80;;
357;SDS011;167;47.558;7.602;2022-12-07T09:41:18;13.67;;;12.33;;
357;SDS011;167;47.558;7.602;2022-12-07T09:43:44;11.83;;;10.57;;
357;SDS011;167;47.558;7.602;2022-12-07T09:46:13;10.53;;;9.50;;
357;SDS011;167;47.558;7.602;2022-12-07T09:48:39;8.77;;;8.07;;
357;SDS011;167;47.558;7.602;2022-12-07T09:53:38;9.33;;;8.30;;
357;SDS011;167;47.558;7.602;2022-12-07T09:56:04;8.67;;;7.87;;
357;SDS011;167;47.558;7.602;2022-12-07T09:58:30;11.37;;;9.20;;
357;SDS011;167;47.558;7.602;2022-12-07T10:01:01;9.57;;;8.73;;
357;SDS011;167;47.558;7.602;2022-12-07T10:03:27;11.77;;;10.57;;
357;SDS011;167;47.558;7.602;2022-12-07T10:05:54;9.97;;;9.07;;
357;SDS011;167;47.558;7.602;2022-12-07T10:08:20;10.10;;;9.30;;
357;SDS011;167;47.558;7.602;2022-12-07T10:10:52;11.80;;;10.80;;
357;SDS011;167;47.558;7.602;2022-12-07T10:13:19;11.20;;;10.10;;
357;SDS011;167;47.558;7.602;2022-12-07T10:18:34;11.10;;;10.10;;
357;SDS011;167;47.558;7.602;2022-12-07T10:21:17;12.03;;;11.03;;
357;SDS011;167;47.558;7.602;2022-12-07T10:28:59;11.00;;;10.10;;
357;SDS011;167;47.558;7.602;2022-12-07T10:31:26;11.30;;;10.30;;
357;SDS011;167;47.558;7.602;2022-12-07T10:33:53;13.70;;;12.53;;
357;SDS011;167;47.558;7.602;2022-12-07T10:36:21;12.83;;;11.63;;
357;SDS011;167;47.558;7.602;2022-12-07T10:38:48;11.67;;;10.47;;
357;SDS011;167;47.558;7.602;2022-12-07T10:41:14;12.20;;;10.60;;
357;SDS011;167;47.558;7.602;2022-12-07T10:43:46;11.90;;;10.80;;
357;SDS011;167;47.558;7.602;2022-12-07T10:54:04;9.80;;;8.90;;
357;SDS011;167;47.558;7.602;2022-12-07T11:06:37;9.63;;;8.73;;
357;SDS011;167;47.558;7.602;2022-12-07T11:14:26;9.90;;;9.00;;
357;SDS011;167;47.558;7.602;2022-12-07T11:22:20;10.17;;;9.17;;
357;SDS011;167;47.558;7.602;2022-12-07T11:24:50;10.50;;;9.57;;
357;SDS011;167;47.558;7.602;2022-12-07T11:27:24;9.53;;;8.67;;
357;SDS011;167;47.558;7.602;2022-12-07T11:35:03;10.27;;;9.30;;
357;SDS011;167;47.558;7.602;2022-12-07T11:37:32;17.00;;;15.30;;
357;SDS011;167;47.558;7.602;2022-12-07T11:40:00;16.53;;;15.03;;
357;SDS011;167;47.558;7.602;2022-12-07T11:42:29;10.00;;;9.10;;
357;SDS011;167;47.558;7.602;2022-12-07T11:45:03;10.20;;;9.40;;
357;SDS011;167;47.558;7.602;2022-12-07T11:47:46;10.70;;;9.80;;
357;SDS011;167;47.558;7.602;2022-12-07T11:55:32;9.20;;;8.40;;
357;SDS011;167;47.558;7.602;2022-12-07T11:58:09;8.60;;;7.90;;
357;SDS011;167;47.558;7.602;2022-12-07T12:00:38;8.67;;;7.97;;
357;SDS011;167;47.558;7.602;2022-12-07T12:03:09;9.77;;;8.97;;
357;SDS011;167;47.558;7.602;2022-12-07T12:05:35;9.83;;;9.00;;
357;SDS011;167;47.558;7.602;2022-12-07T12:10:32;7.83;;;7.23;;
357;SDS011;167;47.558;7.602;2022-12-07T12:18:00;9.17;;;8.47;;
357;SDS011;167;47.558;7.602;2022-12-07T12:20:40;8.17;;;7.57;;
357;SDS011;167;47.558;7.602;2022-12-07T12:25:41;9.70;;;8.67;;
357;SDS011;167;47.558;7.602;2022-12-07T12:28:18;8.97;;;8.23;;
357;SDS011;167;47.558;7.602;2022-12-07T12:30:46;9.20;;;8.50;;
357;SDS011;167;47.558;7.602;2022-12-07T12:33:30;9.47;;;8.67;;
357;SDS011;167;47.558;7.602;2022-12-07T12:36:43;10.17;;;9.37;;
357;SDS011;167;47.558;7.602;2022-12-07T12:43:59;8.20;;;7.57;;
357;SDS011;167;47.558;7.602;2022-12-07T13:01:48;8.57;;;7.67;;
357;SDS011;167;47.558;7.602;2022-12-07T13:04:17;9.07;;;8.17;;
357;SDS011;167;47.558;7.602;2022-12-07T13:06:44;8.63;;;7.83;;
357;SDS011;167;47.558;7.602;2022-12-07T13:09:23;8.80;;;8.00;;
357;SDS011;167;47.558;7.602;2022-12-07T13:11:50;9.20;;;8.30;;
357;SDS011;167;47.558;7.602;2022-12-07T13:17:11;8.53;;;7.27;;
357;SDS011;167;47.558;7.602;2022-12-07T13:24:59;8.47;;;7.77;;
357;SDS011;167;47.558;7.602;2022-12-07T13:27:28;8.80;;;8.07;;
357;SDS011;167;47.558;7.602;2022-12-07T13:29:55;8.37;;;7.67;;
357;SDS011;167;47.558;7.602;2022-12-07T13:32:28;8.03;;;7.33;;
357;SDS011;167;47.558;7.602;2022-12-07T13:34:54;8.57;;;7.73;;
357;SDS011;167;47.558;7.602;2022-12-07T13:37:27;6.90;;;6.40;;
357;SDS011;167;47.558;7.602;2022-12-07T13:40:01;7.13;;;6.63;;
357;SDS011;167;47.558;7.602;2022-12-07T13:42:32;7.70;;;7.10;;
357;SDS011;167;47.558;7.602;2022-12-07T13:44:59;7.97;;;7.23;;
357;SDS011;167;47.558;7.602;2022-12-07T13:50:30;7.17;;;6.57;;
357;SDS011;167;47.558;7.602;2022-12-07T13:52:58;8.07;;;7.47;;
357;SDS011;167;47.558;7.602;2022-12-07T13:55:24;6.93;;;6.40;;
357;SDS011;167;47.558;7.602;2022-12-07T13:57:51;7.00;;;6.40;;
357;SDS011;167;47.558;7.602;2022-12-07T14:00:19;7.57;;;6.87;;
357;SDS011;167;47.558;7.602;2022-12-07T14:02:59;6.40;;;6.00;;
357;SDS011;167;47.558;7.602;2022-12-07T14:05:27;7.43;;;6.63;;
357;SDS011;167;47.558;7.602;2022-12-07T14:10:38;6.80;;;6.30;;
357;SDS011;167;47.558;7.602;2022-12-07T14:15:50;6.50;;;6.00;;
357;SDS011;167;47.558;7.602;2022-12-07T14:18:27;6.17;;;5.77;;
357;SDS011;167;47.558;7.602;2022-12-07T14:21:06;6.63;;;6.07;;
357;SDS011;167;47.558;7.602;2022-12-07T14:23:32;6.53;;;6.03;;
357;SDS011;167;47.558;7.602;2022-12-07T14:26:06;7.43;;;6.83;;
357;SDS011;167;47.558;7.602;2022-12-07T14:28:33;5.67;;;5.27;;
357;SDS011;167;47.558;7.602;2022-12-07T14:31:00;7.40;;;6.80;;
357;SDS011;167;47.558;7.602;2022-12-07T14:33:26;7.30;;;6.70;;
357;SDS011;167;47.558;7.602;2022-12-07T14:35:52;7.30;;;6.70;;
357;SDS011;167;47.558;7.602;2022-12-07T14:38:23;8.00;;;7.20;;
357;SDS011;167;47.558;7.602;2022-12-07T14:40:49;7.23;;;6.60;;
357;SDS011;167;47.558;7.602;2022-12-07T14:43:16;8.60;;;7.10;;
357;SDS011;167;47.558;7.602;2022-12-07T14:45:42;8.77;;;6.87;;
357;SDS011;167;47.558;7.602;2022-12-07T14:48:15;7.40;;;6.80;;
357;SDS011;167;47.558;7.602;2022-12-07T14:50:44;5.97;;;5.50;;
357;SDS011;167;47.558;7.602;2022-12-07T14:53:15;7.47;;;6.87;;
357;SDS011;167;47.558;7.602;2022-12-07T14:55:41;6.67;;;6.07;;
357;SDS011;167;47.558;7.602;2022-12-07T14:58:14;7.93;;;7.10;;
357;SDS011;167;47.558;7.602;2022-12-07T15:00:40;6.53;;;5.93;;
357;SDS011;167;47.558;7.602;2022-12-07T15:03:06;7.30;;;6.57;;
357;SDS011;167;47.558;7.602;2022-12-07T15:05:32;6.53;;;5.93;;
357;SDS011;167;47.558;7.602;2022-12-07T15:07:58;6.73;;;6.23;;
357;SDS011;167;47.558;7.602;2022-12-07T15:10:29;7.53;;;6.73;;
357;SDS011;167;47.558;7.602;2022-12-07T15:12:57;7.53;;;6.93;;
357;SDS011;167;47.558;7.602;2022-12-07T15:15:41;7.17;;;6.43;;
357;SDS011;167;47.558;7.602;2022-12-07T15:18:07;7.30;;;6.70;;
357;SDS011;167;47.558;7.602;2022-12-07T15:20:33;6.80;;;6.20;;
357;SDS011;167;47.558;7.602;2022-12-07T15:22:59;7.17;;;6.57;;
357;SDS011;167;47.558;7.602;2022-12-07T15:25:25;6.67;;;5.97;;
357;SDS011;167;47.558;7.602;2022-12-07T15:27:51;8.20;;;7.40;;
357;SDS011;167;47.558;7.602;2022-12-07T15:30:17;7.03;;;6.33;;
357;SDS011;167;47.558;7.602;2022-12-07T15:32:43;6.50;;;5.90;;
357;SDS011;167;47.558;7.602;2022-12-07T15:35:09;6.03;;;5.43;;
357;SDS011;167;47.558;7.602;2022-12-07T15:37:35;6.23;;;5.63;;
357;SDS011;167;47.558;7.602;2022-12-07T15:40:01;6.30;;;5.90;;
357;SDS011;167;47.558;7.602;2022-12-07T15:42:28;6.67;;;6.10;;
357;SDS011;167;47.558;7.602;2022-12-07T15:44:53;6.80;;;6.10;;
357;SDS011;167;47.558;7.602;2022-12-07T15:47:29;6.80;;;6.30;;
357;SDS011;167;47.558;7.602;2022-12-07T15:49:55;7.43;;;6.80;;
357;SDS011;167;47.558;7.602;2022-12-07T15:52:21;8.00;;;7.20;;
357;SDS011;167;47.558;7.602;2022-12-07T15:54:47;7.63;;;6.83;;
357;SDS011;167;47.558;7.602;2022-12-07T15:57:14;9.20;;;6.73;;
357;SDS011;167;47.558;7.602;2022-12-07T15:59:40;7.80;;;5.70;;
357;SDS011;167;47.558;7.602;2022-12-07T16:02:06;7.00;;;6.40;;
357;SDS011;167;47.558;7.602;2022-12-07T16:04:34;7.37;;;6.60;;
357;SDS011;167;47.558;7.602;2022-12-07T16:07:00;6.67;;;6.07;;
357;SDS011;167;47.558;7.602;2022-12-07T16:09:26;8.63;;;7.83;;
357;SDS011;167;47.558;7.602;2022-12-07T16:11:52;20.87;;;17.13;;
357;SDS011;167;47.558;7.602;2022-12-07T16:14:19;16.40;;;12.93;;
357;SDS011;167;47.558;7.602;2022-12-07T16:16:45;6.17;;;5.57;;
357;SDS011;167;47.558;7.602;2022-12-07T16:19:11;7.43;;;6.73;;
357;SDS011;167;47.558;7.602;2022-12-07T16:21:37;6.77;;;6.17;;
357;SDS011;167;47.558;7.602;2022-12-07T16:24:03;13.53;;;10.57;;
357;SDS011;167;47.558;7.602;2022-12-07T16:26:30;8.03;;;7.33;;
357;SDS011;167;47.558;7.602;2022-12-07T16:28:56;6.60;;;6.07;;
357;SDS011;167;47.558;7.602;2022-12-07T16:31:23;7.37;;;6.67;;
357;SDS011;167;47.558;7.602;2022-12-07T16:33:50;7.53;;;7.00;;
357;SDS011;167;47.558;7.602;2022-12-07T16:36:17;6.80;;;6.30;;
357;SDS011;167;47.558;7.602;2022-12-07T16:38:43;6.17;;;5.40;;
357;SDS011;167;47.558;7.602;2022-12-07T16:41:09;7.40;;;6.80;;
357;SDS011;167;47.558;7.602;2022-12-07T16:43:35;6.40;;;5.90;;
357;SDS011;167;47.558;7.602;2022-12-07T16:46:02;6.63;;;6.10;;
357;SDS011;167;47.558;7.602;2022-12-07T16:48:28;6.90;;;6.40;;
357;SDS011;167;47.558;7.602;2022-12-07T16:50:55;7.87;;;6.67;;
357;SDS011;167;47.558;7.602;2022-12-07T16:53:21;7.70;;;6.93;;
357;SDS011;167;47.558;7.602;2022-12-07T16:55:48;7.27;;;5.70;;
357;SDS011;167;47.558;7.602;2022-12-07T16:58:16;7.90;;;7.17;;
357;SDS011;167;47.558;7.602;2022-12-07T17:00:43;6.83;;;6.23;;
357;SDS011;167;47.558;7.602;2022-12-07T17:03:09;7.90;;;6.60;;
357;SDS011;167;47.558;7.602;2022-12-07T17:05:40;9.00;;;6.20;;
357;SDS011;167;47.558;7.602;2022-12-07T17:08:06;7.20;;;6.50;;
357;SDS011;167;47.558;7.602;2022-12-07T17:10:33;7.60;;;6.83;;
357;SDS011;167;47.558;7.602;2022-12-07T17:13:00;7.90;;;7.17;;
357;SDS011;167;47.558;7.602;2022-12-07T17:15:26;7.10;;;6.40;;
357;SDS011;167;47.558;7.602;2022-12-07T17:17:54;7.47;;;6.87;;
357;SDS011;167;47.558;7.602;2022-12-07T17:20:21;8.43;;;7.63;;
357;SDS011;167;47.558;7.602;2022-12-07T17:22:47;7.97;;;7.20;;
357;SDS011;167;47.558;7.602;2022-12-07T17:25:13;8.17;;;7.23;;
357;SDS011;167;47.558;7.602;2022-12-07T17:27:39;8.00;;;7.27;;
357;SDS011;167;47.558;7.602;2022-12-07T17:30:06;14.10;;;7.33;;
357;SDS011;167;47.558;7.602;2022-12-07T17:32:32;7.67;;;6.97;;
357;SDS011;167;47.558;7.602;2022-12-07T17:34:59;7.53;;;6.70;;
357;SDS011;167;47.558;7.602;2022-12-07T17:37:25;9.13;;;8.33;;
357;SDS011;167;47.558;7.602;2022-12-07T17:39:51;8.27;;;7.40;;
357;SDS011;167;47.558;7.602;2022-12-07T17:42:20;8.67;;;7.87;;
357;SDS011;167;47.558;7.602;2022-12-07T17:45:04;7.70;;;6.90;;
357;SDS011;167;47.558;7.602;2022-12-07T17:47:30;11.50;;;9.60;;